sensor_id;sensor_type;location;lat;lon;timestamp;temperature;humidity
71155;DHT22;59375;53.216;5.728;2022-11-11T00:02:16;12.00;99.90
71155;DHT22;59375;53.216;5.728;2022-11-11T00:04:42;12.00;99.90
71155;DHT22;59375;53.216;5.728;2022-11-11T00:07:07;12.00;99.90
71155;DHT22;59375;53.216;5.728;2022-11-11T00:09:32;12.00;99.90
71155;DHT22;59375;53.216;5.728;2022-11-11T00:11:59;12.00;99.90
71155;DHT22;59375;53.216;5.728;2022-11-11T00:14:25;12.00;99.90
71155;DHT22;59375;53.216;5.728;2022-11-11T00:16:50;12.00;99.90
71155;DHT22;59375;53.216;5.728;2022-11-11T00:19:34;11.90;99.90
71155;DHT22;59375;53.216;5.728;2022-11-11T00:22:19;12.00;99.90
71155;DHT22;59375;53.216;5.728;2022-11-11T00:25:03;12.00;99.90
71155;DHT22;59375;53.216;5.728;2022-11-11T00:27:32;12.00;99.90
71155;DHT22;59375;53.216;5.728;2022-11-11T00:29:58;12.00;99.90
71155;DHT22;59375;53.216;5.728;2022-11-11T00:32:23;12.00;99.90
71155;DHT22;59375;53.216;5.728;2022-11-11T00:34:52;12.00;99.90
71155;DHT22;59375;53.216;5.728;2022-11-11T00:37:36;12.00;99.90
71155;DHT22;59375;53.216;5.728;2022-11-11T00:40:02;12.00;99.90
71155;DHT22;59375;53.216;5.728;2022-11-11T00:42:27;12.00;99.90
71155;DHT22;59375;53.216;5.728;2022-11-11T00:44:53;12.00;99.90
71155;DHT22;59375;53.216;5.728;2022-11-11T00:47:18;12.00;99.90
71155;DHT22;59375;53.216;5.728;2022-11-11T00:50:03;12.00;99.90
71155;DHT22;59375;53.216;5.728;2022-11-11T00:52:48;12.00;99.90
71155;DHT22;59375;53.216;5.728;2022-11-11T00:55:13;12.00;99.90
71155;DHT22;59375;53.216;5.728;2022-11-11T00:57:39;12.00;99.90
71155;DHT22;59375;53.216;5.728;2022-11-11T01:00:04;12.00;99.90
71155;DHT22;59375;53.216;5.728;2022-11-11T01:02:30;12.00;99.90
71155;DHT22;59375;53.216;5.728;2022-11-11T01:04:55;12.00;99.90
71155;DHT22;59375;53.216;5.728;2022-11-11T01:07:21;12.00;99.90
71155;DHT22;59375;53.216;5.728;2022-11-11T01:09:47;12.00;99.90
71155;DHT22;59375;53.216;5.728;2022-11-11T01:12:12;12.00;99.90
71155;DHT22;59375;53.216;5.728;2022-11-11T01:14:38;12.00;99.90
71155;DHT22;59375;53.216;5.728;2022-11-11T01:17:03;12.00;99.90
71155;DHT22;59375;53.216;5.728;2022-11-11T01:19:31;11.90;99.90
71155;DHT22;59375;53.216;5.728;2022-11-11T01:21:57;11.90;99.90
71155;DHT22;59375;53.216;5.728;2022-11-11T01:24:23;11.80;99.90
71155;DHT22;59375;53.216;5.728;2022-11-11T01:26:48;11.80;99.90
71155;DHT22;59375;53.216;5.728;2022-11-11T01:29:13;11.70;99.90
71155;DHT22;59375;53.216;5.728;2022-11-11T01:31:39;11.70;99.90
71155;DHT22;59375;53.216;5.728;2022-11-11T01:34:04;11.60;99.90
71155;DHT22;59375;53.216;5.728;2022-11-11T01:36:30;11.70;99.90
71155;DHT22;59375;53.216;5.728;2022-11-11T01:38:56;11.70;99.90
71155;DHT22;59375;53.216;5.728;2022-11-11T01:41:27;11.80;99.90
71155;DHT22;59375;53.216;5.728;2022-11-11T01:46:39;11.90;99.90
71155;DHT22;59375;53.216;5.728;2022-11-11T01:49:20;11.90;99.90
71155;DHT22;59375;53.216;5.728;2022-11-11T01:51:54;12.00;99.90
71155;DHT22;59375;53.216;5.728;2022-11-11T01:57:07;12.10;99.90
71155;DHT22;59375;53.216;5.728;2022-11-11T01:59:34;12.10;99.90
71155;DHT22;59375;53.216;5.728;2022-11-11T02:02:02;12.20;99.90
71155;DHT22;59375;53.216;5.728;2022-11-11T02:04:29;12.20;99.90
71155;DHT22;59375;53.216;5.728;2022-11-11T02:07:14;12.20;99.90
71155;DHT22;59375;53.216;5.728;2022-11-11T02:09:40;12.20;99.90
71155;DHT22;59375;53.216;5.728;2022-11-11T02:12:07;12.30;99.90
71155;DHT22;59375;53.216;5.728;2022-11-11T02:14:53;12.30;99.90
71155;DHT22;59375;53.216;5.728;2022-11-11T02:17:18;12.30;99.90
71155;DHT22;59375;53.216;5.728;2022-11-11T02:19:54;12.30;99.90
71155;DHT22;59375;53.216;5.728;2022-11-11T02:25:01;12.30;99.90
71155;DHT22;59375;53.216;5.728;2022-11-11T02:27:27;12.40;99.90
71155;DHT22;59375;53.216;5.728;2022-11-11T02:29:55;12.40;99.90
71155;DHT22;59375;53.216;5.728;2022-11-11T02:32:20;12.40;99.90
71155;DHT22;59375;53.216;5.728;2022-11-11T02:34:46;12.40;99.90
71155;DHT22;59375;53.216;5.728;2022-11-11T02:37:11;12.40;99.90
71155;DHT22;59375;53.216;5.728;2022-11-11T02:39:43;12.40;99.90
71155;DHT22;59375;53.216;5.728;2022-11-11T02:42:11;12.40;99.90
71155;DHT22;59375;53.216;5.728;2022-11-11T02:44:37;12.40;99.90
71155;DHT22;59375;53.216;5.728;2022-11-11T02:47:03;12.30;99.90
71155;DHT22;59375;53.216;5.728;2022-11-11T02:49:28;12.30;99.90
71155;DHT22;59375;53.216;5.728;2022-11-11T02:51:54;12.30;99.90
71155;DHT22;59375;53.216;5.728;2022-11-11T02:54:19;12.30;99.90
71155;DHT22;59375;53.216;5.728;2022-11-11T02:56:45;12.30;99.90
71155;DHT22;59375;53.216;5.728;2022-11-11T02:59:29;12.30;99.90
71155;DHT22;59375;53.216;5.728;2022-11-11T03:01:54;12.20;99.90
71155;DHT22;59375;53.216;5.728;2022-11-11T03:04:20;12.10;99.90
71155;DHT22;59375;53.216;5.728;2022-11-11T03:06:45;12.00;99.90
71155;DHT22;59375;53.216;5.728;2022-11-11T03:09:11;11.90;99.90
71155;DHT22;59375;53.216;5.728;2022-11-11T03:11:36;11.80;99.90
71155;DHT22;59375;53.216;5.728;2022-11-11T03:14:02;11.80;99.90
71155;DHT22;59375;53.216;5.728;2022-11-11T03:16:28;11.80;99.90
71155;DHT22;59375;53.216;5.728;2022-11-11T03:19:12;11.80;99.90
71155;DHT22;59375;53.216;5.728;2022-11-11T03:21:38;11.80;99.90
71155;DHT22;59375;53.216;5.728;2022-11-11T03:24:03;11.80;99.90
71155;DHT22;59375;53.216;5.728;2022-11-11T03:26:29;11.80;99.90
71155;DHT22;59375;53.216;5.728;2022-11-11T03:28:54;11.80;99.90
71155;DHT22;59375;53.216;5.728;2022-11-11T03:31:20;11.90;99.90
71155;DHT22;59375;53.216;5.728;2022-11-11T03:33:45;11.90;99.90
71155;DHT22;59375;53.216;5.728;2022-11-11T03:36:11;11.90;99.90
71155;DHT22;59375;53.216;5.728;2022-11-11T03:38:36;11.90;99.90
71155;DHT22;59375;53.216;5.728;2022-11-11T03:41:02;11.90;99.90
71155;DHT22;59375;53.216;5.728;2022-11-11T03:43:28;11.90;99.90
71155;DHT22;59375;53.216;5.728;2022-11-11T03:45:55;11.90;99.90
71155;DHT22;59375;53.216;5.728;2022-11-11T03:48:21;11.90;99.90
71155;DHT22;59375;53.216;5.728;2022-11-11T03:50:47;11.90;99.90
71155;DHT22;59375;53.216;5.728;2022-11-11T03:53:13;11.90;99.90
71155;DHT22;59375;53.216;5.728;2022-11-11T03:55:39;11.90;99.90
71155;DHT22;59375;53.216;5.728;2022-11-11T03:58:05;11.90;99.90
71155;DHT22;59375;53.216;5.728;2022-11-11T04:00:30;11.90;99.90
71155;DHT22;59375;53.216;5.728;2022-11-11T04:05:49;11.90;99.90
71155;DHT22;59375;53.216;5.728;2022-11-11T04:08:34;11.80;99.90
71155;DHT22;59375;53.216;5.728;2022-11-11T04:11:21;11.90;99.90
71155;DHT22;59375;53.216;5.728;2022-11-11T04:13:48;11.90;99.90
71155;DHT22;59375;53.216;5.728;2022-11-11T04:16:32;11.90;99.90
71155;DHT22;59375;53.216;5.728;2022-11-11T04:18:58;11.80;99.90
71155;DHT22;59375;53.216;5.728;2022-11-11T04:21:42;11.80;99.90
71155;DHT22;59375;53.216;5.728;2022-11-11T04:24:08;11.70;99.90
71155;DHT22;59375;53.216;5.728;2022-11-11T04:26:53;11.70;99.90
71155;DHT22;59375;53.216;5.728;2022-11-11T04:29:19;11.60;99.90
71155;DHT22;59375;53.216;5.728;2022-11-11T04:32:00;11.50;99.90
71155;DHT22;59375;53.216;5.728;2022-11-11T04:34:48;11.50;99.90
71155;DHT22;59375;53.216;5.728;2022-11-11T04:37:14;11.40;99.90
71155;DHT22;59375;53.216;5.728;2022-11-11T04:39:40;11.40;99.90
71155;DHT22;59375;53.216;5.728;2022-11-11T04:42:25;11.40;99.90
71155;DHT22;59375;53.216;5.728;2022-11-11T04:44:50;11.50;99.90
71155;DHT22;59375;53.216;5.728;2022-11-11T04:47:34;11.40;99.90
71155;DHT22;59375;53.216;5.728;2022-11-11T04:50:00;11.40;99.90
71155;DHT22;59375;53.216;5.728;2022-11-11T04:52:25;11.50;99.90
71155;DHT22;59375;53.216;5.728;2022-11-11T04:54:54;11.40;99.90
71155;DHT22;59375;53.216;5.728;2022-11-11T04:57:46;11.40;99.90
71155;DHT22;59375;53.216;5.728;2022-11-11T05:00:12;11.40;99.90
71155;DHT22;59375;53.216;5.728;2022-11-11T05:02:38;11.40;99.90
71155;DHT22;59375;53.216;5.728;2022-11-11T05:05:23;11.40;99.90
71155;DHT22;59375;53.216;5.728;2022-11-11T05:07:48;11.30;99.90
71155;DHT22;59375;53.216;5.728;2022-11-11T05:10:33;11.20;99.90
71155;DHT22;59375;53.216;5.728;2022-11-11T05:12:58;11.10;99.90
71155;DHT22;59375;53.216;5.728;2022-11-11T05:15:42;11.10;99.90
71155;DHT22;59375;53.216;5.728;2022-11-11T05:18:27;11.00;99.90
71155;DHT22;59375;53.216;5.728;2022-11-11T05:21:15;11.00;99.90
71155;DHT22;59375;53.216;5.728;2022-11-11T05:23:45;11.00;99.90
71155;DHT22;59375;53.216;5.728;2022-11-11T05:26:29;10.90;99.90
71155;DHT22;59375;53.216;5.728;2022-11-11T05:28:54;10.90;99.90
71155;DHT22;59375;53.216;5.728;2022-11-11T05:31:20;10.90;99.90
71155;DHT22;59375;53.216;5.728;2022-11-11T05:33:45;10.90;99.90
71155;DHT22;59375;53.216;5.728;2022-11-11T05:36:10;10.90;99.90
71155;DHT22;59375;53.216;5.728;2022-11-11T05:38:36;10.90;99.90
71155;DHT22;59375;53.216;5.728;2022-11-11T05:41:01;10.90;99.90
71155;DHT22;59375;53.216;5.728;2022-11-11T05:43:27;10.90;99.90
71155;DHT22;59375;53.216;5.728;2022-11-11T05:45:52;10.90;99.90
71155;DHT22;59375;53.216;5.728;2022-11-11T05:48:18;10.90;99.90
71155;DHT22;59375;53.216;5.728;2022-11-11T05:50:43;11.00;99.90
71155;DHT22;59375;53.216;5.728;2022-11-11T05:53:08;11.00;99.90
71155;DHT22;59375;53.216;5.728;2022-11-11T05:55:34;11.00;99.90
71155;DHT22;59375;53.216;5.728;2022-11-11T05:57:59;11.10;99.90
71155;DHT22;59375;53.216;5.728;2022-11-11T06:00:25;11.10;99.90
71155;DHT22;59375;53.216;5.728;2022-11-11T06:02:50;11.10;99.90
71155;DHT22;59375;53.216;5.728;2022-11-11T06:05:15;11.10;99.90
71155;DHT22;59375;53.216;5.728;2022-11-11T06:07:41;11.00;99.90
71155;DHT22;59375;53.216;5.728;2022-11-11T06:10:07;11.00;99.90
71155;DHT22;59375;53.216;5.728;2022-11-11T06:12:51;11.00;99.90
71155;DHT22;59375;53.216;5.728;2022-11-11T06:15:35;11.00;99.90
71155;DHT22;59375;53.216;5.728;2022-11-11T06:18:01;11.00;99.90
71155;DHT22;59375;53.216;5.728;2022-11-11T06:20:27;10.90;99.90
71155;DHT22;59375;53.216;5.728;2022-11-11T06:22:52;10.90;99.90
71155;DHT22;59375;53.216;5.728;2022-11-11T06:25:21;10.90;99.90
71155;DHT22;59375;53.216;5.728;2022-11-11T06:28:05;11.00;99.90
71155;DHT22;59375;53.216;5.728;2022-11-11T06:30:31;10.90;99.90
71155;DHT22;59375;53.216;5.728;2022-11-11T06:32:56;11.00;99.90
71155;DHT22;59375;53.216;5.728;2022-11-11T06:35:22;11.00;99.90
71155;DHT22;59375;53.216;5.728;2022-11-11T06:37:47;11.00;99.90
71155;DHT22;59375;53.216;5.728;2022-11-11T06:40:13;11.00;99.90
71155;DHT22;59375;53.216;5.728;2022-11-11T06:42:38;11.10;99.90
71155;DHT22;59375;53.216;5.728;2022-11-11T06:45:04;11.10;99.90
71155;DHT22;59375;53.216;5.728;2022-11-11T06:47:29;11.10;99.90
71155;DHT22;59375;53.216;5.728;2022-11-11T06:49:55;11.10;99.90
71155;DHT22;59375;53.216;5.728;2022-11-11T06:52:20;11.10;99.90
71155;DHT22;59375;53.216;5.728;2022-11-11T06:54:46;11.10;99.90
71155;DHT22;59375;53.216;5.728;2022-11-11T06:57:11;11.20;99.90
71155;DHT22;59375;53.216;5.728;2022-11-11T06:59:36;11.10;99.90
71155;DHT22;59375;53.216;5.728;2022-11-11T07:02:02;11.20;99.90
71155;DHT22;59375;53.216;5.728;2022-11-11T07:04:27;11.20;99.90
71155;DHT22;59375;53.216;5.728;2022-11-11T07:06:53;11.20;99.90
71155;DHT22;59375;53.216;5.728;2022-11-11T07:09:18;11.20;99.90
71155;DHT22;59375;53.216;5.728;2022-11-11T07:11:44;11.10;99.90
71155;DHT22;59375;53.216;5.728;2022-11-11T07:14:09;11.10;99.90
71155;DHT22;59375;53.216;5.728;2022-11-11T07:16:34;11.10;99.90
71155;DHT22;59375;53.216;5.728;2022-11-11T07:19:00;11.20;99.90
71155;DHT22;59375;53.216;5.728;2022-11-11T07:21:25;11.20;99.90
71155;DHT22;59375;53.216;5.728;2022-11-11T07:23:51;11.10;99.90
71155;DHT22;59375;53.216;5.728;2022-11-11T07:26:16;11.10;99.90
71155;DHT22;59375;53.216;5.728;2022-11-11T07:28:41;11.10;99.90
71155;DHT22;59375;53.216;5.728;2022-11-11T07:31:07;11.10;99.90
71155;DHT22;59375;53.216;5.728;2022-11-11T07:33:32;11.20;99.90
71155;DHT22;59375;53.216;5.728;2022-11-11T07:35:58;11.20;99.90
71155;DHT22;59375;53.216;5.728;2022-11-11T07:38:23;11.20;99.90
71155;DHT22;59375;53.216;5.728;2022-11-11T07:40:49;11.20;99.90
71155;DHT22;59375;53.216;5.728;2022-11-11T07:43:14;11.20;99.90
71155;DHT22;59375;53.216;5.728;2022-11-11T07:45:39;11.20;99.90
71155;DHT22;59375;53.216;5.728;2022-11-11T07:48:05;11.20;99.90
71155;DHT22;59375;53.216;5.728;2022-11-11T07:50:30;11.20;99.90
71155;DHT22;59375;53.216;5.728;2022-11-11T07:52:56;11.20;99.90
71155;DHT22;59375;53.216;5.728;2022-11-11T07:55:21;11.20;99.90
71155;DHT22;59375;53.216;5.728;2022-11-11T07:57:50;11.20;99.90
71155;DHT22;59375;53.216;5.728;2022-11-11T08:00:16;11.20;99.90
71155;DHT22;59375;53.216;5.728;2022-11-11T08:02:45;11.20;99.90
71155;DHT22;59375;53.216;5.728;2022-11-11T08:05:10;11.20;99.90
71155;DHT22;59375;53.216;5.728;2022-11-11T08:07:36;11.20;99.90
71155;DHT22;59375;53.216;5.728;2022-11-11T08:10:02;11.20;99.90
71155;DHT22;59375;53.216;5.728;2022-11-11T08:12:27;11.20;99.90
71155;DHT22;59375;53.216;5.728;2022-11-11T08:15:11;11.20;99.90
71155;DHT22;59375;53.216;5.728;2022-11-11T08:17:37;11.20;99.90
71155;DHT22;59375;53.216;5.728;2022-11-11T08:20:04;11.30;99.90
71155;DHT22;59375;53.216;5.728;2022-11-11T08:22:34;11.30;99.90
71155;DHT22;59375;53.216;5.728;2022-11-11T08:24:59;11.30;99.90
71155;DHT22;59375;53.216;5.728;2022-11-11T08:27:25;11.30;99.90
71155;DHT22;59375;53.216;5.728;2022-11-11T08:29:50;11.30;99.90
71155;DHT22;59375;53.216;5.728;2022-11-11T08:32:15;11.30;99.90
71155;DHT22;59375;53.216;5.728;2022-11-11T08:34:41;11.30;99.90
71155;DHT22;59375;53.216;5.728;2022-11-11T08:37:06;11.30;99.90
71155;DHT22;59375;53.216;5.728;2022-11-11T08:39:32;11.30;99.90
71155;DHT22;59375;53.216;5.728;2022-11-11T08:41:57;11.30;99.90
71155;DHT22;59375;53.216;5.728;2022-11-11T08:44:23;11.30;99.90
71155;DHT22;59375;53.216;5.728;2022-11-11T08:46:48;11.20;99.90
71155;DHT22;59375;53.216;5.728;2022-11-11T08:49:14;11.30;99.90
71155;DHT22;59375;53.216;5.728;2022-11-11T08:51:39;11.20;99.90
71155;DHT22;59375;53.216;5.728;2022-11-11T08:54:05;11.20;99.90
71155;DHT22;59375;53.216;5.728;2022-11-11T08:56:30;11.20;99.90
71155;DHT22;59375;53.216;5.728;2022-11-11T08:58:55;11.20;99.90
71155;DHT22;59375;53.216;5.728;2022-11-11T09:01:21;11.20;99.90
71155;DHT22;59375;53.216;5.728;2022-11-11T09:03:46;11.20;99.90
71155;DHT22;59375;53.216;5.728;2022-11-11T09:06:12;11.20;99.90
71155;DHT22;59375;53.216;5.728;2022-11-11T09:08:40;11.30;99.90
71155;DHT22;59375;53.216;5.728;2022-11-11T09:11:05;11.20;99.90
71155;DHT22;59375;53.216;5.728;2022-11-11T09:13:30;11.20;99.90
71155;DHT22;59375;53.216;5.728;2022-11-11T09:15:56;11.20;99.90
71155;DHT22;59375;53.216;5.728;2022-11-11T09:18:24;11.30;99.90
71155;DHT22;59375;53.216;5.728;2022-11-11T09:20:49;11.20;99.90
71155;DHT22;59375;53.216;5.728;2022-11-11T09:23:14;11.30;99.90
71155;DHT22;59375;53.216;5.728;2022-11-11T09:25:40;11.30;99.90
71155;DHT22;59375;53.216;5.728;2022-11-11T09:28:05;11.30;99.90
71155;DHT22;59375;53.216;5.728;2022-11-11T09:30:32;11.30;99.90
71155;DHT22;59375;53.216;5.728;2022-11-11T09:33:00;11.40;99.90
71155;DHT22;59375;53.216;5.728;2022-11-11T09:35:26;11.30;99.90
71155;DHT22;59375;53.216;5.728;2022-11-11T09:37:53;11.40;99.90
71155;DHT22;59375;53.216;5.728;2022-11-11T09:40:20;11.40;99.90
71155;DHT22;59375;53.216;5.728;2022-11-11T09:42:53;11.40;99.90
71155;DHT22;59375;53.216;5.728;2022-11-11T09:45:24;11.40;99.90
71155;DHT22;59375;53.216;5.728;2022-11-11T09:50:17;11.50;99.90
71155;DHT22;59375;53.216;5.728;2022-11-11T09:52:47;11.50;99.90
71155;DHT22;59375;53.216;5.728;2022-11-11T09:55:15;11.50;99.90
71155;DHT22;59375;53.216;5.728;2022-11-11T09:57:46;11.50;99.90
71155;DHT22;59375;53.216;5.728;2022-11-11T10:00:14;11.50;99.90
71155;DHT22;59375;53.216;5.728;2022-11-11T10:02:45;11.50;99.90
71155;DHT22;59375;53.216;5.728;2022-11-11T10:05:12;11.50;99.90
71155;DHT22;59375;53.216;5.728;2022-11-11T10:07:40;11.60;99.90
71155;DHT22;59375;53.216;5.728;2022-11-11T10:10:22;11.60;99.90
71155;DHT22;59375;53.216;5.728;2022-11-11T10:12:50;11.60;99.90
71155;DHT22;59375;53.216;5.728;2022-11-11T10:15:17;11.60;99.90
71155;DHT22;59375;53.216;5.728;2022-11-11T10:20:19;11.60;99.90
71155;DHT22;59375;53.216;5.728;2022-11-11T10:22:48;11.60;99.90
71155;DHT22;59375;53.216;5.728;2022-11-11T10:25:19;11.60;99.90
71155;DHT22;59375;53.216;5.728;2022-11-11T10:27:45;11.60;99.90
71155;DHT22;59375;53.216;5.728;2022-11-11T10:32:40;11.60;99.90
71155;DHT22;59375;53.216;5.728;2022-11-11T10:35:17;11.60;99.90
71155;DHT22;59375;53.216;5.728;2022-11-11T10:37:43;11.60;99.90
71155;DHT22;59375;53.216;5.728;2022-11-11T10:40:16;11.70;99.90
71155;DHT22;59375;53.216;5.728;2022-11-11T10:42:42;11.70;99.90
71155;DHT22;59375;53.216;5.728;2022-11-11T10:45:11;11.70;99.90
71155;DHT22;59375;53.216;5.728;2022-11-11T10:52:54;11.70;99.90
71155;DHT22;59375;53.216;5.728;2022-11-11T10:55:22;11.70;99.90
71155;DHT22;59375;53.216;5.728;2022-11-11T11:00:33;11.70;99.90
71155;DHT22;59375;53.216;5.728;2022-11-11T11:03:09;11.80;99.90
71155;DHT22;59375;53.216;5.728;2022-11-11T11:05:47;11.80;99.90
71155;DHT22;59375;53.216;5.728;2022-11-11T11:08:16;11.80;99.90
71155;DHT22;59375;53.216;5.728;2022-11-11T11:10:43;11.80;99.90
71155;DHT22;59375;53.216;5.728;2022-11-11T11:13:14;11.80;99.90
71155;DHT22;59375;53.216;5.728;2022-11-11T11:15:41;11.80;99.90
71155;DHT22;59375;53.216;5.728;2022-11-11T11:18:14;11.80;99.90
71155;DHT22;59375;53.216;5.728;2022-11-11T11:20:54;11.80;99.90
71155;DHT22;59375;53.216;5.728;2022-11-11T11:26:04;11.80;99.90
71155;DHT22;59375;53.216;5.728;2022-11-11T11:28:30;11.80;99.90
71155;DHT22;59375;53.216;5.728;2022-11-11T11:31:03;11.80;99.90
71155;DHT22;59375;53.216;5.728;2022-11-11T11:36:14;11.70;99.90
71155;DHT22;59375;53.216;5.728;2022-11-11T11:38:41;11.80;99.90
71155;DHT22;59375;53.216;5.728;2022-11-11T11:41:07;11.80;99.90
71155;DHT22;59375;53.216;5.728;2022-11-11T11:43:36;11.80;99.90
71155;DHT22;59375;53.216;5.728;2022-11-11T11:46:19;11.80;99.90
71155;DHT22;59375;53.216;5.728;2022-11-11T11:48:53;11.80;99.90
71155;DHT22;59375;53.216;5.728;2022-11-11T11:51:35;11.80;99.90
71155;DHT22;59375;53.216;5.728;2022-11-11T11:54:12;11.80;99.90
71155;DHT22;59375;53.216;5.728;2022-11-11T11:56:40;11.80;99.90
71155;DHT22;59375;53.216;5.728;2022-11-11T11:59:26;11.80;99.90
71155;DHT22;59375;53.216;5.728;2022-11-11T12:01:58;11.80;99.90
71155;DHT22;59375;53.216;5.728;2022-11-11T12:04:48;11.80;99.90
71155;DHT22;59375;53.216;5.728;2022-11-11T12:07:20;11.80;99.90
71155;DHT22;59375;53.216;5.728;2022-11-11T12:12:22;11.70;99.90
71155;DHT22;59375;53.216;5.728;2022-11-11T12:14:56;11.80;99.90
71155;DHT22;59375;53.216;5.728;2022-11-11T12:17:32;11.70;99.90
71155;DHT22;59375;53.216;5.728;2022-11-11T12:20:12;11.80;99.90
71155;DHT22;59375;53.216;5.728;2022-11-11T12:30:35;11.90;99.90
71155;DHT22;59375;53.216;5.728;2022-11-11T12:33:13;11.90;99.90
71155;DHT22;59375;53.216;5.728;2022-11-11T12:36:00;11.90;99.90
71155;DHT22;59375;53.216;5.728;2022-11-11T12:44:02;12.00;99.90
71155;DHT22;59375;53.216;5.728;2022-11-11T12:49:23;12.00;99.90
71155;DHT22;59375;53.216;5.728;2022-11-11T12:51:55;12.00;99.90
71155;DHT22;59375;53.216;5.728;2022-11-11T12:54:29;12.10;99.90
71155;DHT22;59375;53.216;5.728;2022-11-11T12:57:05;12.10;99.90
71155;DHT22;59375;53.216;5.728;2022-11-11T13:09:36;12.10;99.90
71155;DHT22;59375;53.216;5.728;2022-11-11T13:12:09;12.10;99.90
71155;DHT22;59375;53.216;5.728;2022-11-11T13:14:53;12.20;99.90
71155;DHT22;59375;53.216;5.728;2022-11-11T13:17:20;12.10;99.90
71155;DHT22;59375;53.216;5.728;2022-11-11T13:19:54;12.10;99.90
71155;DHT22;59375;53.216;5.728;2022-11-11T13:22:22;12.10;99.90
71155;DHT22;59375;53.216;5.728;2022-11-11T13:24:51;12.10;99.90
71155;DHT22;59375;53.216;5.728;2022-11-11T13:30:34;12.10;99.90
71155;DHT22;59375;53.216;5.728;2022-11-11T13:32:54;12.10;99.90
71155;DHT22;59375;53.216;5.728;2022-11-11T13:35:28;12.10;99.90
71155;DHT22;59375;53.216;5.728;2022-11-11T13:37:55;12.10;99.90
71155;DHT22;59375;53.216;5.728;2022-11-11T13:40:28;12.10;99.90
71155;DHT22;59375;53.216;5.728;2022-11-11T13:42:56;12.10;99.90
71155;DHT22;59375;53.216;5.728;2022-11-11T13:45:24;12.10;99.90
71155;DHT22;59375;53.216;5.728;2022-11-11T13:47:50;12.10;99.90
71155;DHT22;59375;53.216;5.728;2022-11-11T13:52:51;12.10;99.90
71155;DHT22;59375;53.216;5.728;2022-11-11T13:55:38;12.10;99.90
71155;DHT22;59375;53.216;5.728;2022-11-11T13:58:05;12.00;99.90
71155;DHT22;59375;53.216;5.728;2022-11-11T14:00:34;12.00;99.90
71155;DHT22;59375;53.216;5.728;2022-11-11T14:05:38;12.00;99.90
71155;DHT22;59375;53.216;5.728;2022-11-11T14:08:03;12.00;99.90
71155;DHT22;59375;53.216;5.728;2022-11-11T14:15:44;12.00;99.90
71155;DHT22;59375;53.216;5.728;2022-11-11T14:20:44;12.00;99.90
71155;DHT22;59375;53.216;5.728;2022-11-11T14:25:38;12.00;99.90
71155;DHT22;59375;53.216;5.728;2022-11-11T14:28:04;12.00;99.90
71155;DHT22;59375;53.216;5.728;2022-11-11T14:30:32;12.00;99.90
71155;DHT22;59375;53.216;5.728;2022-11-11T14:33:19;12.00;99.90
71155;DHT22;59375;53.216;5.728;2022-11-11T14:36:01;11.90;99.90
71155;DHT22;59375;53.216;5.728;2022-11-11T14:38:32;12.00;99.90
71155;DHT22;59375;53.216;5.728;2022-11-11T14:41:48;11.90;99.90
71155;DHT22;59375;53.216;5.728;2022-11-11T14:43:48;11.90;99.90
71155;DHT22;59375;53.216;5.728;2022-11-11T14:46:13;11.90;99.90
71155;DHT22;59375;53.216;5.728;2022-11-11T14:48:48;11.90;99.90
71155;DHT22;59375;53.216;5.728;2022-11-11T14:53:57;11.90;99.90
71155;DHT22;59375;53.216;5.728;2022-11-11T14:56:23;11.90;99.90
71155;DHT22;59375;53.216;5.728;2022-11-11T14:58:50;11.90;99.90
71155;DHT22;59375;53.216;5.728;2022-11-11T15:01:16;11.90;99.90
71155;DHT22;59375;53.216;5.728;2022-11-11T15:03:46;11.90;99.90
71155;DHT22;59375;53.216;5.728;2022-11-11T15:06:23;11.90;99.90
71155;DHT22;59375;53.216;5.728;2022-11-11T15:09:08;11.90;99.90
71155;DHT22;59375;53.216;5.728;2022-11-11T15:30:05;11.80;99.90
71155;DHT22;59375;53.216;5.728;2022-11-11T15:32:47;11.80;99.90
71155;DHT22;59375;53.216;5.728;2022-11-11T15:35:23;11.70;99.90
71155;DHT22;59375;53.216;5.728;2022-11-11T15:37:52;11.70;99.90
71155;DHT22;59375;53.216;5.728;2022-11-11T15:40:19;11.70;99.90
71155;DHT22;59375;53.216;5.728;2022-11-11T15:42:45;11.70;99.90
71155;DHT22;59375;53.216;5.728;2022-11-11T15:47:42;11.60;99.90
71155;DHT22;59375;53.216;5.728;2022-11-11T15:50:15;11.60;99.90
71155;DHT22;59375;53.216;5.728;2022-11-11T15:52:41;11.60;99.90
71155;DHT22;59375;53.216;5.728;2022-11-11T15:55:18;11.60;99.90
71155;DHT22;59375;53.216;5.728;2022-11-11T15:57:44;11.60;99.90
71155;DHT22;59375;53.216;5.728;2022-11-11T16:00:31;11.60;99.90
71155;DHT22;59375;53.216;5.728;2022-11-11T16:02:55;11.60;99.90
71155;DHT22;59375;53.216;5.728;2022-11-11T16:05:22;11.60;99.90
71155;DHT22;59375;53.216;5.728;2022-11-11T16:07:48;11.60;99.90
71155;DHT22;59375;53.216;5.728;2022-11-11T16:10:15;11.50;99.90
71155;DHT22;59375;53.216;5.728;2022-11-11T16:15:44;11.40;99.90
71155;DHT22;59375;53.216;5.728;2022-11-11T16:18:13;11.40;99.90
71155;DHT22;59375;53.216;5.728;2022-11-11T16:20:41;11.30;99.90
71155;DHT22;59375;53.216;5.728;2022-11-11T16:23:08;11.30;99.90
71155;DHT22;59375;53.216;5.728;2022-11-11T16:25:36;11.30;99.90
71155;DHT22;59375;53.216;5.728;2022-11-11T16:28:02;11.20;99.90
71155;DHT22;59375;53.216;5.728;2022-11-11T16:30:32;11.20;99.90
71155;DHT22;59375;53.216;5.728;2022-11-11T16:32:58;11.20;99.90
71155;DHT22;59375;53.216;5.728;2022-11-11T16:35:28;11.20;99.90
71155;DHT22;59375;53.216;5.728;2022-11-11T16:37:55;11.20;99.90
71155;DHT22;59375;53.216;5.728;2022-11-11T16:41:03;11.10;99.90
71155;DHT22;59375;53.216;5.728;2022-11-11T16:45:47;11.20;99.90
71155;DHT22;59375;53.216;5.728;2022-11-11T16:50:59;11.20;99.90
71155;DHT22;59375;53.216;5.728;2022-11-11T16:53:28;11.10;99.90
71155;DHT22;59375;53.216;5.728;2022-11-11T16:55:59;11.10;99.90
71155;DHT22;59375;53.216;5.728;2022-11-11T16:58:25;11.00;99.90
71155;DHT22;59375;53.216;5.728;2022-11-11T17:00:57;11.00;99.90
71155;DHT22;59375;53.216;5.728;2022-11-11T17:03:23;11.00;99.90
71155;DHT22;59375;53.216;5.728;2022-11-11T17:05:53;10.90;99.90
71155;DHT22;59375;53.216;5.728;2022-11-11T17:08:34;10.90;99.90
71155;DHT22;59375;53.216;5.728;2022-11-11T17:11:01;10.80;99.90
71155;DHT22;59375;53.216;5.728;2022-11-11T17:13:27;10.80;99.90
71155;DHT22;59375;53.216;5.728;2022-11-11T17:15:53;10.80;99.90
71155;DHT22;59375;53.216;5.728;2022-11-11T17:18:19;10.80;99.90
71155;DHT22;59375;53.216;5.728;2022-11-11T17:20:44;10.90;99.90
71155;DHT22;59375;53.216;5.728;2022-11-11T17:23:10;10.90;99.90
71155;DHT22;59375;53.216;5.728;2022-11-11T17:25:36;10.90;99.90
71155;DHT22;59375;53.216;5.728;2022-11-11T17:28:01;11.00;99.90
71155;DHT22;59375;53.216;5.728;2022-11-11T17:30:26;11.00;99.90
71155;DHT22;59375;53.216;5.728;2022-11-11T17:32:52;11.00;99.90
71155;DHT22;59375;53.216;5.728;2022-11-11T17:35:17;11.00;99.90